Kezdőlap
METAR-TAF:

METAR-TAF

Repülőterek :

Batam, Indonézia

földrajzi szélesség: 01-07-15N, földrajzi hosszúság: 104-07-07E, magasság: 38 m

Jelenlegi meteorológiai megfigyelések

A jelentés 47 perccel ezelõtt készült, 17:00 UTC
Dél-délkeleti szél 5 kt
Hőmérséklet 27°C
Páratartalom 84%
Légköri nyomás 1012 hPa
Látótávolság 10 km, vagy több

METAR: WIDD 221700Z AUTO 15005KT 9999NDV NCD 27/24 Q1012

Idő: 00:47 (17:47 UTC)

Előrejelzés

A jelentés 6 órával és 47 perccel ezelõtt készült, 11:00 UTC
Az előrejelzés 22-én 12 óra UTC és 23-én 12 óra UTC között érvényes
Délkeleti szél 5 kt
Látótávolság 10 km, vagy több
Szórványos felhőzet 1400 lábon

TAF: WIDD 221100Z 2212/2312 14005KT 9999 SCT014

Meteorológiai megfigyelések és előrejelzések több, mint 4000 repülőtéren (METAR és TAF jelentéseket).

A térképen piros és sárga pontok jelzik az elérhető meteorológiai állomásokat.

Mozgassa az egeret a pont fölött, hogy megjelenjen az állomás neve.

Azután kattintson az időjárási megfigyelések és előrejelzések megtekintéséhez.

A térkép megváltoztatása: kattintson a fekete keresztel jelölt zöld gombra ráközelítéshez, a vonallal jelölt zöld gombra távolításhoz, vagy a zöld nyilakra a szomszédos térképek eléréséhez.


METAR-TAF: